Milos — A8TH8 — position and weather

sailwx.info

Track history (hours):
 
Tides and Currents Weather Stations Pressure Air Temp Water Temp Dewpoint Dewpoint Depression Visibility Wind Speed Wind Dir Waves Ship Positions

Milos

Last reported at 2015-Jul-06 00:21 UTC. Time now 2015-Sep-05 03:49 UTC.
Position N 01°11' E 103°36'.
Warning: this ship's position is months out of date.

Length 190 m; draft 12 m.

Type: Cargo ship. MMSI: 636014358.

Date/timePositionNaut miles runAvg speedWind from/ knotsBaromVisibWave heightAir tempDewpointWater temp
2015-Jul-06 00:21N 01°11' E 103°36'1011.6
2015-Jul-05 23:30N 01°10' E 103°46'9 9.9
2015-Jul-05 22:33N 01°13' E 103°55'7 6.6
2015-Jul-05 21:33N 01°17' E 103°60'0 0.0
2015-Jul-05 18:30N 01°17' E 103°60'0 0.2
2015-Jul-05 17:24N 01°17' E 103°60'0 0.1
2015-Jul-05 16:24N 01°17' E 103°60'0 0.0
2015-Jul-05 15:21N 01°17' E 103°60'0 0.0
2015-Jul-05 14:24N 01°17' E 103°60'0 0.1
2015-Jul-05 13:27N 01°17' E 103°60'0 0.1
2015-Jul-05 12:30N 01°17' E 103°60'0 0.1
2015-Jul-05 11:03N 01°17' E 103°60'0 0.1
2015-Jul-05 10:33N 01°17' E 103°60'0 0.1
2015-Jul-05 09:33N 01°17' E 103°60'0 0.0
2015-Jul-05 08:18N 01°17' E 103°60'0 0.0
2015-Jul-05 07:33N 01°17' E 103°60'0 0.0
2015-Jul-05 06:24N 01°17' E 103°60'0 0.0
2015-Jul-05 04:30N 01°17' E 103°60'0 0.0
2015-Jul-05 03:30N 01°17' E 103°60'0 0.1
2015-Jul-05 02:33N 01°17' E 104°00'1 1.0
2015-Jul-05 01:34N 01°16' E 103°60'7 6.8
2015-Jul-05 00:32N 01°17' E 104°07'  
Track history (hours):
 
Tides and Currents Weather Stations Pressure Air Temp Water Temp Dewpoint Dewpoint Depression Visibility Wind Speed Wind Dir Waves Ship Positions

Milos

Last reported at 2015-Jul-06 00:21 UTC. Time now 2015-Sep-05 03:49 UTC.
Position N 01°11' E 103°36'.
Warning: this ship's position is months out of date.

Length 190 m; draft 12 m.

Type: Cargo ship. MMSI: 636014358.

Date/timePositionNaut miles runAvg speedWind from/ knotsBaromVisibWave heightAir tempDewpointWater temp
2015-Jul-06 00:21N 01°11' E 103°36'1011.6
2015-Jul-05 23:30N 01°10' E 103°46'9 9.9
2015-Jul-05 22:33N 01°13' E 103°55'7 6.6
2015-Jul-05 21:33N 01°17' E 103°60'0 0.0
2015-Jul-05 18:30N 01°17' E 103°60'0 0.2
2015-Jul-05 17:24N 01°17' E 103°60'0 0.1
2015-Jul-05 16:24N 01°17' E 103°60'0 0.0
2015-Jul-05 15:21N 01°17' E 103°60'0 0.0
2015-Jul-05 14:24N 01°17' E 103°60'0 0.1
2015-Jul-05 13:27N 01°17' E 103°60'0 0.1
2015-Jul-05 12:30N 01°17' E 103°60'0 0.1
2015-Jul-05 11:03N 01°17' E 103°60'0 0.1
2015-Jul-05 10:33N 01°17' E 103°60'0 0.1
2015-Jul-05 09:33N 01°17' E 103°60'0 0.0
2015-Jul-05 08:18N 01°17' E 103°60'0 0.0
2015-Jul-05 07:33N 01°17' E 103°60'0 0.0
2015-Jul-05 06:24N 01°17' E 103°60'0 0.0
2015-Jul-05 04:30N 01°17' E 103°60'0 0.0
2015-Jul-05 03:30N 01°17' E 103°60'0 0.1
2015-Jul-05 02:33N 01°17' E 104°00'1 1.0
2015-Jul-05 01:34N 01°16' E 103°60'7 6.8
2015-Jul-05 00:32N 01°17' E 104°07'  

Dump ship's entire track history